createdAt,value
2023-04-09T00:01:13.418Z,101063.53
2023-04-09T00:03:40.621Z,101071.47
2023-04-09T00:06:07.576Z,101065.28
2023-04-09T00:08:33.998Z,101068.84
2023-04-09T00:11:00.521Z,101071.38
2023-04-09T00:13:38.641Z,101062.41
2023-04-09T00:16:06.540Z,101057.97
2023-04-09T00:18:33.000Z,101060.63
2023-04-09T00:20:59.349Z,101062.47
2023-04-09T00:23:25.783Z,101055.38
2023-04-09T00:25:52.265Z,101047.47
2023-04-09T00:28:18.660Z,101057.13
2023-04-09T00:30:45.307Z,101055.47
2023-04-09T00:33:11.771Z,101054.31
2023-04-09T00:35:38.183Z,101065.38
2023-04-09T00:38:04.556Z,101063.53
2023-04-09T00:40:31.377Z,101059.31
2023-04-09T00:42:57.762Z,101062.88
2023-04-09T00:45:24.245Z,101067.41
2023-04-09T00:47:51.275Z,101061.19
2023-04-09T00:50:17.832Z,101061.25
2023-04-09T00:52:44.480Z,101055.16
2023-04-09T00:55:10.949Z,101062.94
2023-04-09T00:57:37.487Z,101062.97
2023-04-09T01:00:04.721Z,101065.66
2023-04-09T01:02:31.520Z,101065.72
2023-04-09T01:04:58.336Z,101057.81
2023-04-09T01:07:51.157Z,101056.13
2023-04-09T01:10:38.217Z,101060.63
2023-04-09T01:13:23.904Z,101062.41
2023-04-09T01:15:57.094Z,101065.03
2023-04-09T01:18:28.411Z,101067.75
2023-04-09T01:21:00.628Z,101060.66
2023-04-09T01:23:37.433Z,101060.69
2023-04-09T01:26:22.585Z,101058.03
2023-04-09T01:28:53.844Z,101052.69
2023-04-09T01:31:25.202Z,101055.41
2023-04-09T01:33:52.487Z,101059.78
2023-04-09T01:36:19.915Z,101056.28
2023-04-09T01:38:51.271Z,101061.53
2023-04-09T01:41:21.679Z,101058.91
2023-04-09T01:43:50.806Z,101061.56
2023-04-09T01:46:18.825Z,101062.41
2023-04-09T01:48:46.406Z,101062.44
2023-04-09T01:51:14.248Z,101073.91
2023-04-09T01:53:41.536Z,101073.91
2023-04-09T01:56:09.367Z,101076.47
2023-04-09T01:58:36.134Z,101066.72
2023-04-09T02:01:13.299Z,101067.69
2023-04-09T02:03:47.139Z,101072.06
2023-04-09T02:06:17.598Z,101080.81
2023-04-09T02:08:47.671Z,101080.06
2023-04-09T02:11:15.354Z,101070.28
2023-04-09T02:13:43.517Z,101075.66
2023-04-09T02:16:13.747Z,101075.59
2023-04-09T02:18:40.321Z,101075.69
2023-04-09T02:21:07.123Z,101075.66
2023-04-09T02:23:33.665Z,101075.63
2023-04-09T02:26:00.126Z,101071.22
2023-04-09T02:28:26.665Z,101065.94
2023-04-09T02:30:53.202Z,101070.31
2023-04-09T02:33:19.628Z,101074.78
2023-04-09T02:35:46.058Z,101071.22
2023-04-09T02:38:13.787Z,101072.97
2023-04-09T02:40:43.344Z,101070.34
2023-04-09T02:43:10.688Z,101073.88
2023-04-09T02:45:37.254Z,101069.47
2023-04-09T02:48:03.830Z,101077.44
2023-04-09T02:50:30.455Z,101082.78
2023-04-09T02:52:56.867Z,101081.88
2023-04-09T02:55:23.275Z,101082.81
2023-04-09T02:57:49.672Z,101078.34
2023-04-09T03:00:16.098Z,101074.00
2023-04-09T03:02:42.859Z,101079.28
2023-04-09T03:05:09.619Z,101081.00
2023-04-09T03:07:36.049Z,101073.13
2023-04-09T03:10:02.591Z,101076.66
2023-04-09T03:12:28.999Z,101068.72
2023-04-09T03:14:55.521Z,101063.44
2023-04-09T03:17:22.043Z,101067.84
2023-04-09T03:19:48.454Z,101065.16
2023-04-09T03:22:14.853Z,101057.25
2023-04-09T03:24:41.253Z,101066.03
2023-04-09T03:27:07.718Z,101064.28
2023-04-09T03:29:34.111Z,101051.91
2023-04-09T03:32:00.520Z,101053.66
2023-04-09T03:34:27.037Z,101051.84
2023-04-09T03:36:53.395Z,101051.88
2023-04-09T03:39:19.771Z,101050.06
2023-04-09T03:41:46.566Z,101044.75
2023-04-09T03:44:12.942Z,101044.78
2023-04-09T03:46:39.329Z,101044.75
2023-04-09T03:49:05.924Z,101040.41
2023-04-09T03:51:32.398Z,101033.34
2023-04-09T03:53:58.785Z,101040.38
2023-04-09T03:56:25.402Z,101032.44
2023-04-09T03:58:51.957Z,101040.34
2023-04-09T04:01:18.587Z,101042.16
2023-04-09T04:03:45.478Z,101033.44
2023-04-09T04:06:12.015Z,101038.72
2023-04-09T04:08:38.353Z,101037.84
2023-04-09T04:11:05.590Z,101034.34
2023-04-09T04:13:32.061Z,101032.53
2023-04-09T04:15:58.472Z,101046.69
2023-04-09T04:18:24.982Z,101038.75
2023-04-09T04:20:51.611Z,101048.44
2023-04-09T04:23:18.022Z,101048.47
2023-04-09T04:25:44.460Z,101045.81
2023-04-09T04:28:10.855Z,101047.59
2023-04-09T04:30:37.240Z,101049.34
2023-04-09T04:33:03.705Z,101051.97
2023-04-09T04:35:30.180Z,101057.22
2023-04-09T04:37:56.958Z,101051.03
2023-04-09T04:40:23.481Z,101047.44
2023-04-09T04:42:49.931Z,101046.56
2023-04-09T04:45:16.276Z,101057.06
2023-04-09T04:47:42.723Z,101065.81
2023-04-09T04:50:09.669Z,101063.19
2023-04-09T04:52:36.554Z,101063.16
2023-04-09T04:55:03.064Z,101066.56
2023-04-09T04:57:29.454Z,101062.16
2023-04-09T04:59:55.834Z,101062.97
2023-04-09T05:02:22.290Z,101063.91
2023-04-09T05:04:48.738Z,101072.56
2023-04-09T05:07:15.535Z,101062.06
2023-04-09T05:09:42.936Z,101069.03
2023-04-09T05:12:09.273Z,101063.94
2023-04-09T05:14:35.674Z,101069.16
2023-04-09T05:17:02.232Z,101079.72
2023-04-09T05:19:28.638Z,101070.13
2023-04-09T05:21:55.012Z,101079.22
2023-04-09T05:24:21.418Z,101076.59
2023-04-09T05:26:47.852Z,101081.91
2023-04-09T05:29:14.255Z,101080.16
2023-04-09T05:31:41.235Z,101078.41
2023-04-09T05:34:07.599Z,101084.56
2023-04-09T05:36:34.076Z,101077.53
2023-04-09T05:39:00.726Z,101082.78
2023-04-09T05:41:27.119Z,101073.94
2023-04-09T05:43:53.783Z,101084.53
2023-04-09T05:46:20.431Z,101081.91
2023-04-09T05:48:46.870Z,101073.13
2023-04-09T05:51:13.330Z,101074.00
2023-04-09T05:53:39.707Z,101079.28
2023-04-09T05:56:14.639Z,101082.81
2023-04-09T05:58:41.157Z,101082.81
2023-04-09T06:01:07.542Z,101079.22
2023-04-09T06:03:34.053Z,101084.50
2023-04-09T06:06:00.619Z,101076.59
2023-04-09T06:08:26.979Z,101079.22
2023-04-09T06:10:53.328Z,101084.50
2023-04-09T06:13:19.745Z,101087.09
2023-04-09T06:15:46.122Z,101092.44
2023-04-09T06:18:12.562Z,101097.69
2023-04-09T06:20:39.119Z,101091.50
2023-04-09T06:23:05.687Z,101091.38
2023-04-09T06:25:32.117Z,101099.38
2023-04-09T06:27:58.517Z,101093.13
2023-04-09T06:30:24.851Z,101095.75
2023-04-09T06:32:54.776Z,101102.63
2023-04-09T06:35:22.057Z,101099.06
2023-04-09T06:37:48.471Z,101097.25
2023-04-09T06:40:14.839Z,101104.34
2023-04-09T06:42:41.418Z,101103.41
2023-04-09T06:45:08.759Z,101103.38
2023-04-09T06:47:36.120Z,101105.06
2023-04-09T06:50:03.133Z,101101.28
2023-04-09T06:52:29.519Z,101096.97
2023-04-09T06:54:55.871Z,101101.44
2023-04-09T06:57:22.227Z,101096.91
2023-04-09T06:59:48.593Z,101093.28
2023-04-09T07:02:15.211Z,101098.16
2023-04-09T07:04:41.896Z,101097.44
2023-04-09T07:07:08.332Z,101101.63
2023-04-09T07:09:34.730Z,101098.16
2023-04-09T07:12:01.325Z,101101.47
2023-04-09T07:14:27.763Z,101097.06
2023-04-09T07:16:54.154Z,101096.03
2023-04-09T07:19:20.710Z,101104.91
2023-04-09T07:21:47.047Z,101096.22
2023-04-09T07:24:13.401Z,101104.13
2023-04-09T07:26:39.810Z,101102.41
2023-04-09T07:29:06.212Z,101099.44
2023-04-09T07:31:35.312Z,101103.16
2023-04-09T07:34:02.464Z,101103.13
2023-04-09T07:36:28.951Z,101101.00
2023-04-09T07:38:55.495Z,101097.41
2023-04-09T07:41:21.974Z,101091.94
2023-04-09T07:43:48.387Z,101099.72
2023-04-09T07:46:24.190Z,101099.84
2023-04-09T07:48:51.277Z,101107.56
2023-04-09T07:51:18.182Z,101106.81
2023-04-09T07:53:44.586Z,101109.78
2023-04-09T07:56:11.158Z,101109.06
2023-04-09T07:58:40.486Z,101108.50
2023-04-09T08:01:06.909Z,101109.53
2023-04-09T08:03:33.649Z,101102.44
2023-04-09T08:06:00.161Z,101095.09
2023-04-09T08:08:26.571Z,101100.53
2023-04-09T08:10:53.525Z,101097.78
2023-04-09T08:13:19.953Z,101097.69
2023-04-09T08:15:46.349Z,101106.81
2023-04-09T08:18:12.882Z,101111.63
2023-04-09T08:20:44.847Z,101107.81
2023-04-09T08:23:12.259Z,101107.09
2023-04-09T08:25:38.719Z,101101.38
2023-04-09T08:28:05.462Z,101107.09
2023-04-09T08:30:34.142Z,101108.72
2023-04-09T08:33:01.535Z,101107.22
2023-04-09T08:35:30.700Z,101110.72
2023-04-09T08:37:57.886Z,101114.31
2023-04-09T08:40:24.318Z,101116.91
2023-04-09T08:42:57.105Z,101110.69
2023-04-09T08:45:24.110Z,101120.47
2023-04-09T08:47:51.767Z,101115.13
2023-04-09T08:50:18.459Z,101110.72
2023-04-09T08:52:48.084Z,101115.03
2023-04-09T08:55:14.611Z,101124.28
2023-04-09T08:57:41.449Z,101118.72
2023-04-09T09:00:08.922Z,101116.38
2023-04-09T09:02:35.783Z,101126.50
2023-04-09T09:05:02.383Z,101123.06
2023-04-09T09:07:29.720Z,101120.50
2023-04-09T09:10:03.482Z,101127.00
2023-04-09T09:12:41.037Z,101121.66
2023-04-09T09:15:28.161Z,101118.97
2023-04-09T09:17:57.310Z,101117.53
2023-04-09T09:20:24.501Z,101121.22
2023-04-09T09:22:54.857Z,101119.19
2023-04-09T09:25:24.720Z,101114.34
2023-04-09T09:27:52.180Z,101123.66
2023-04-09T09:30:27.262Z,101118.28
2023-04-09T09:32:55.253Z,101117.94
2023-04-09T09:35:22.306Z,101115.53
2023-04-09T09:38:02.027Z,101109.97
2023-04-09T09:40:28.833Z,101098.53
2023-04-09T09:42:58.522Z,101102.59
2023-04-09T09:45:26.092Z,101105.88
2023-04-09T09:47:54.189Z,101102.63
2023-04-09T09:50:25.244Z,101098.66
2023-04-09T09:52:58.797Z,101097.31
2023-04-09T09:55:29.850Z,101094.06
2023-04-09T09:57:58.128Z,101084.56
2023-04-09T10:00:26.870Z,101071.66
2023-04-09T10:02:59.729Z,101089.00
2023-04-09T10:05:27.716Z,101082.88
2023-04-09T10:07:57.406Z,101083.56
2023-04-09T10:10:25.728Z,101079.31
2023-04-09T10:12:52.400Z,101076.81
2023-04-09T10:15:19.722Z,101061.78
2023-04-09T10:17:46.584Z,101056.53
2023-04-09T10:20:19.676Z,101057.81
2023-04-09T10:22:50.178Z,101065.16
2023-04-09T10:25:17.378Z,101058.88
2023-04-09T10:27:49.133Z,101066.13
2023-04-09T10:30:35.169Z,101067.84
2023-04-09T10:33:13.701Z,101072.53
2023-04-09T10:35:40.279Z,101067.09
2023-04-09T10:38:10.736Z,101062.28
2023-04-09T10:40:42.863Z,101064.72
2023-04-09T10:43:10.402Z,101066.91
2023-04-09T10:45:41.787Z,101059.56
2023-04-09T10:48:14.631Z,101060.97
2023-04-09T10:50:44.810Z,101064.09
2023-04-09T10:53:25.693Z,101059.16
2023-04-09T10:55:53.591Z,101060.78
2023-04-09T10:58:20.373Z,101063.63
2023-04-09T11:00:48.800Z,101061.97
2023-04-09T11:03:27.433Z,101060.69
2023-04-09T11:06:10.533Z,101060.47
2023-04-09T11:08:38.579Z,101058.56
2023-04-09T11:11:05.905Z,101058.28
2023-04-09T11:13:34.030Z,101057.31
2023-04-09T11:16:03.189Z,101058.38
2023-04-09T11:18:30.753Z,101064.06
2023-04-09T11:20:59.540Z,101050.91
2023-04-09T11:23:26.802Z,101047.44
2023-04-09T11:25:54.156Z,101052.28
2023-04-09T11:28:21.234Z,101045.22
2023-04-09T11:30:51.909Z,101051.41
2023-04-09T11:33:20.062Z,101047.84
2023-04-09T11:35:47.347Z,101049.13
2023-04-09T11:38:13.860Z,101046.78
2023-04-09T11:40:47.923Z,101051.38
2023-04-09T11:43:18.447Z,101039.94
2023-04-09T11:45:48.121Z,101050.56
2023-04-09T11:48:16.065Z,101039.50
2023-04-09T11:50:42.874Z,101042.34
2023-04-09T11:53:16.699Z,101034.66
2023-04-09T11:55:43.091Z,101042.31
2023-04-09T11:58:11.550Z,101034.84
2023-04-09T12:00:40.916Z,101037.97
2023-04-09T12:03:07.578Z,101043.00
2023-04-09T12:05:35.057Z,101046.72
2023-04-09T12:08:04.839Z,101038.31
2023-04-09T12:10:34.263Z,101031.03
2023-04-09T12:13:06.969Z,101030.84
2023-04-09T12:15:35.901Z,101022.22
2023-04-09T12:18:03.459Z,101022.63
2023-04-09T12:20:34.723Z,101020.47
2023-04-09T12:23:03.504Z,101027.88
2023-04-09T12:25:31.375Z,101024.78
2023-04-09T12:27:58.327Z,101016.25
2023-04-09T12:30:25.390Z,101020.94
2023-04-09T12:32:52.968Z,101019.31
2023-04-09T12:35:19.862Z,101012.31
2023-04-09T12:37:47.211Z,101014.34
2023-04-09T12:40:14.062Z,101002.59
2023-04-09T12:42:41.984Z,101010.38
2023-04-09T12:45:15.484Z,101012.13
2023-04-09T12:47:42.463Z,101004.69
2023-04-09T12:50:10.684Z,101001.78
2023-04-09T12:52:37.488Z,101002.13
2023-04-09T12:55:05.112Z,101003.50
2023-04-09T12:57:31.788Z,101010.72
2023-04-09T12:59:59.779Z,100992.31
2023-04-09T13:02:26.559Z,100998.72
2023-04-09T13:04:53.155Z,101004.22
2023-04-09T13:07:20.661Z,101002.63
2023-04-09T13:09:48.919Z,100995.09
2023-04-09T13:12:16.245Z,100994.09
2023-04-09T13:14:46.630Z,100994.84
2023-04-09T13:17:13.457Z,100991.66
2023-04-09T13:19:42.061Z,100990.06
2023-04-09T13:22:09.352Z,100996.94
2023-04-09T13:24:36.247Z,100993.19
2023-04-09T13:27:06.552Z,100981.97
2023-04-09T13:29:33.097Z,100977.63
2023-04-09T13:32:01.794Z,100984.41
2023-04-09T13:34:28.235Z,100984.25
2023-04-09T13:36:54.635Z,100981.31
2023-04-09T13:39:21.022Z,100974.72
2023-04-09T13:41:47.419Z,100976.19
2023-04-09T13:44:13.822Z,100978.66
2023-04-09T13:46:40.298Z,100990.56
2023-04-09T13:49:06.835Z,100983.72
2023-04-09T13:51:33.804Z,100987.00
2023-04-09T13:54:00.195Z,100980.41
2023-04-09T13:56:27.512Z,100982.72
2023-04-09T13:58:54.279Z,100975.81
2023-04-09T14:01:21.184Z,100972.25
2023-04-09T14:03:47.791Z,100969.66
2023-04-09T14:06:14.248Z,100975.56
2023-04-09T14:08:40.680Z,100976.25
2023-04-09T14:11:07.236Z,100971.22
2023-04-09T14:13:33.618Z,100967.75
2023-04-09T14:16:00.617Z,100965.97
2023-04-09T14:18:27.073Z,100963.09
2023-04-09T14:20:53.515Z,100966.59
2023-04-09T14:23:19.987Z,100961.28
2023-04-09T14:25:46.413Z,100961.75
2023-04-09T14:28:13.907Z,100949.53
2023-04-09T14:30:40.457Z,100955.00
2023-04-09T14:33:06.935Z,100948.97
2023-04-09T14:35:33.469Z,100952.97
2023-04-09T14:38:01.522Z,100955.94
2023-04-09T14:40:27.909Z,100950.47
2023-04-09T14:42:54.275Z,100952.44
2023-04-09T14:45:20.635Z,100948.63
2023-04-09T14:47:47.137Z,100950.41
2023-04-09T14:50:13.682Z,100941.50
2023-04-09T14:52:40.270Z,100942.25
2023-04-09T14:55:12.089Z,100938.94
2023-04-09T14:57:39.682Z,100925.66
2023-04-09T15:00:08.755Z,100932.47
2023-04-09T15:02:35.454Z,100938.91
2023-04-09T15:05:02.864Z,100937.72
2023-04-09T15:07:29.332Z,100930.13
2023-04-09T15:09:57.347Z,100933.19
2023-04-09T15:12:23.776Z,100928.06
2023-04-09T15:14:50.195Z,100935.19
2023-04-09T15:17:16.627Z,100926.97
2023-04-09T15:19:43.046Z,100923.28
2023-04-09T15:22:09.458Z,100924.91
2023-04-09T15:24:35.971Z,100920.47
2023-04-09T15:27:02.651Z,100926.75
2023-04-09T15:29:28.984Z,100923.13
2023-04-09T15:31:55.377Z,100926.75
2023-04-09T15:34:21.813Z,100923.00
2023-04-09T15:36:48.246Z,100919.56
2023-04-09T15:39:15.008Z,100920.34
2023-04-09T15:41:41.402Z,100917.97
2023-04-09T15:44:08.617Z,100916.75
2023-04-09T15:46:35.265Z,100911.78
2023-04-09T15:49:01.671Z,100905.91
2023-04-09T15:51:28.005Z,100901.59
2023-04-09T15:53:54.371Z,100903.19
2023-04-09T15:56:20.853Z,100898.72
2023-04-09T15:58:47.242Z,100900.34
2023-04-09T16:01:13.794Z,100896.78
2023-04-09T16:03:41.200Z,100899.56
2023-04-09T16:06:10.284Z,100902.16
2023-04-09T16:08:37.445Z,100894.38
2023-04-09T16:11:04.870Z,100895.78
2023-04-09T16:13:31.237Z,100895.84
2023-04-09T16:15:57.679Z,100895.16
2023-04-09T16:18:24.278Z,100898.19
2023-04-09T16:20:55.026Z,100883.25
2023-04-09T16:23:22.287Z,100893.13
2023-04-09T16:25:49.007Z,100895.66
2023-04-09T16:28:16.508Z,100894.84
2023-04-09T16:30:43.751Z,100899.56
2023-04-09T16:33:10.615Z,100896.72
2023-04-09T16:35:39.672Z,100895.25
2023-04-09T16:38:07.114Z,100890.16
2023-04-09T16:40:33.670Z,100883.50
2023-04-09T16:43:03.181Z,100898.75
2023-04-09T16:45:29.923Z,100886.78
2023-04-09T16:47:56.422Z,100899.91
2023-04-09T16:50:23.209Z,100894.94
2023-04-09T16:52:49.639Z,100892.69
2023-04-09T16:55:16.381Z,100885.34
2023-04-09T16:57:43.004Z,100890.44
2023-04-09T17:00:10.463Z,100886.47
2023-04-09T17:02:37.395Z,100887.69
2023-04-09T17:05:04.293Z,100885.78
2023-04-09T17:07:30.691Z,100875.63
2023-04-09T17:09:57.170Z,100885.16
2023-04-09T17:12:24.476Z,100879.78
2023-04-09T17:14:51.518Z,100877.88
2023-04-09T17:17:19.352Z,100885.16
2023-04-09T17:19:45.743Z,100877.63
2023-04-09T17:22:13.808Z,100884.59
2023-04-09T17:24:40.314Z,100890.75
2023-04-09T17:27:07.307Z,100886.03
2023-04-09T17:29:34.071Z,100890.94
2023-04-09T17:32:00.666Z,100886.06
2023-04-09T17:34:27.255Z,100883.22
2023-04-09T17:36:57.285Z,100885.59
2023-04-09T17:39:24.356Z,100885.06
2023-04-09T17:41:52.413Z,100893.09
2023-04-09T17:44:19.074Z,100892.44
2023-04-09T17:46:46.035Z,100897.94
2023-04-09T17:49:12.772Z,100891.78
2023-04-09T17:51:39.431Z,100893.22
2023-04-09T17:54:05.926Z,100889.19
2023-04-09T17:56:35.344Z,100882.88
2023-04-09T17:59:02.089Z,100873.78
2023-04-09T18:01:28.713Z,100887.13
2023-04-09T18:03:55.381Z,100893.75
2023-04-09T18:06:21.936Z,100893.97
2023-04-09T18:08:49.993Z,100890.59
2023-04-09T18:11:18.267Z,100891.69
2023-04-09T18:13:44.742Z,100895.28
2023-04-09T18:16:12.012Z,100895.25
2023-04-09T18:18:39.132Z,100896.06
2023-04-09T18:21:06.187Z,100895.94
2023-04-09T18:23:32.938Z,100894.00
2023-04-09T18:25:59.384Z,100893.25
2023-04-09T18:28:26.133Z,100897.75
2023-04-09T18:30:54.049Z,100898.03
2023-04-09T18:33:21.098Z,100901.53
2023-04-09T18:35:47.670Z,100900.34
2023-04-09T18:38:14.127Z,100899.84
2023-04-09T18:40:42.661Z,100901.63
2023-04-09T18:43:09.651Z,100904.09
2023-04-09T18:45:36.180Z,100900.84
2023-04-09T18:48:02.628Z,100901.44
2023-04-09T18:50:29.021Z,100906.03
2023-04-09T18:52:55.447Z,100906.16
2023-04-09T18:55:21.793Z,100906.31
2023-04-09T18:57:48.180Z,100910.47
2023-04-09T19:00:14.801Z,100916.22
2023-04-09T19:02:41.420Z,100915.06
2023-04-09T19:05:08.466Z,100913.13
2023-04-09T19:07:35.981Z,100915.09
2023-04-09T19:10:02.389Z,100902.66
2023-04-09T19:12:28.810Z,100908.03
2023-04-09T19:14:55.328Z,100903.97
2023-04-09T19:17:22.381Z,100905.25
2023-04-09T19:19:48.914Z,100909.13
2023-04-09T19:22:16.303Z,100906.56
2023-04-09T19:24:45.475Z,100908.53
2023-04-09T19:27:13.108Z,100904.28
2023-04-09T19:29:39.610Z,100902.34
2023-04-09T19:32:06.181Z,100901.84
2023-04-09T19:34:32.558Z,100907.41
2023-04-09T19:36:58.973Z,100905.97
2023-04-09T19:39:28.083Z,100908.66
2023-04-09T19:41:54.468Z,100909.78
2023-04-09T19:44:21.127Z,100913.09
2023-04-09T19:46:47.534Z,100911.19
2023-04-09T19:49:14.612Z,100923.25
2023-04-09T19:51:41.038Z,100927.72
2023-04-09T19:54:09.590Z,100929.66
2023-04-09T19:56:37.965Z,100931.69
2023-04-09T19:59:04.397Z,100925.88
2023-04-09T20:01:30.791Z,100934.81
2023-04-09T20:03:57.502Z,100929.47
2023-04-09T20:06:24.146Z,100927.91
2023-04-09T20:08:51.076Z,100933.44
2023-04-09T20:11:18.472Z,100928.22
2023-04-09T20:13:47.020Z,100918.19
2023-04-09T20:16:16.466Z,100924.84
2023-04-09T20:18:42.875Z,100916.97
2023-04-09T20:21:13.978Z,100921.56
2023-04-09T20:23:40.728Z,100923.38
2023-04-09T20:26:09.699Z,100921.69
2023-04-09T20:28:36.302Z,100920.69
2023-04-09T20:31:03.997Z,100919.91
2023-04-09T20:33:30.668Z,100919.84
2023-04-09T20:35:57.379Z,100922.44
2023-04-09T20:38:24.225Z,100919.75
2023-04-09T20:40:52.686Z,100918.75
2023-04-09T20:43:19.457Z,100924.13
2023-04-09T20:45:45.911Z,100925.28
2023-04-09T20:48:12.587Z,100921.09
2023-04-09T20:50:39.036Z,100910.66
2023-04-09T20:53:05.554Z,100916.53
2023-04-09T20:55:31.937Z,100918.28
2023-04-09T20:57:58.444Z,100910.53
2023-04-09T21:00:24.897Z,100903.59
2023-04-09T21:02:51.522Z,100907.13
2023-04-09T21:05:23.454Z,100907.16
2023-04-09T21:07:51.597Z,100908.97
2023-04-09T21:10:18.013Z,100906.22
2023-04-09T21:12:44.408Z,100910.66
2023-04-09T21:15:11.112Z,100920.53
2023-04-09T21:17:37.708Z,100919.69
2023-04-09T21:20:04.520Z,100913.56
2023-04-09T21:22:31.279Z,100906.50
2023-04-09T21:24:57.889Z,100898.50
2023-04-09T21:27:24.314Z,100909.19
2023-04-09T21:29:50.814Z,100918.13
2023-04-09T21:32:17.531Z,100913.75
2023-04-09T21:34:43.926Z,100923.44
2023-04-09T21:37:10.422Z,100923.44
2023-04-09T21:39:36.932Z,100923.44
2023-04-09T21:42:03.372Z,100926.13
2023-04-09T21:44:29.794Z,100927.88
2023-04-09T21:46:56.378Z,100925.22
2023-04-09T21:49:22.800Z,100919.94
2023-04-09T21:51:49.239Z,100919.03
2023-04-09T21:54:15.745Z,100919.97
2023-04-09T21:56:42.157Z,100930.53
2023-04-09T21:59:08.624Z,100913.81
2023-04-09T22:01:35.339Z,100912.94
2023-04-09T22:04:02.113Z,100912.91
2023-04-09T22:06:29.094Z,100902.41
2023-04-09T22:08:57.394Z,100909.44
2023-04-09T22:11:29.286Z,100907.69
2023-04-09T22:13:57.019Z,100912.91
2023-04-09T22:16:24.121Z,100904.13
2023-04-09T22:18:51.504Z,100906.75
2023-04-09T22:21:18.187Z,100905.88
2023-04-09T22:23:45.258Z,100906.75
2023-04-09T22:26:11.672Z,100916.44
2023-04-09T22:28:38.375Z,100913.75
2023-04-09T22:31:05.704Z,100914.69
2023-04-09T22:33:32.200Z,100925.22
2023-04-09T22:35:59.488Z,100926.97
2023-04-09T22:38:26.067Z,100934.06
2023-04-09T22:40:52.653Z,100934.03
2023-04-09T22:43:19.538Z,100934.84
2023-04-09T22:45:54.129Z,100936.47
2023-04-09T22:48:21.946Z,100943.56
2023-04-09T22:50:49.290Z,100940.88
2023-04-09T22:53:19.103Z,100932.97
2023-04-09T22:55:54.387Z,100932.09
2023-04-09T22:58:21.044Z,100924.19
2023-04-09T23:00:47.717Z,100919.81
2023-04-09T23:03:14.534Z,100913.72
2023-04-09T23:05:41.852Z,100921.63
2023-04-09T23:08:08.690Z,100916.38
2023-04-09T23:10:35.778Z,100917.22
2023-04-09T23:13:02.394Z,100921.63
2023-04-09T23:15:28.891Z,100923.44
2023-04-09T23:17:55.547Z,100923.41
2023-04-09T23:20:22.117Z,100932.22
2023-04-09T23:22:49.164Z,100932.22
2023-04-09T23:25:16.611Z,100927.84
2023-04-09T23:27:43.545Z,100937.41
2023-04-09T23:30:10.442Z,100929.47
2023-04-09T23:32:37.050Z,100938.19
2023-04-09T23:35:04.167Z,100940.75
2023-04-09T23:37:30.933Z,100936.34
2023-04-09T23:39:57.328Z,100942.44
2023-04-09T23:42:23.884Z,100943.28
2023-04-09T23:44:50.444Z,100940.59
2023-04-09T23:47:17.331Z,100938.03
2023-04-09T23:49:43.891Z,100938.94
2023-04-09T23:52:10.447Z,100933.66
2023-04-09T23:54:36.886Z,100936.38
2023-04-09T23:57:03.374Z,100938.91
2023-04-09T23:59:33.672Z,100939.72
